createdAt,value
2018-06-03T00:01:15.756Z,82.20
2018-06-03T00:03:43.954Z,82.20
2018-06-03T00:06:12.036Z,82.20
2018-06-03T00:08:40.140Z,82.40
2018-06-03T00:11:08.236Z,82.40
2018-06-03T00:13:36.301Z,82.40
2018-06-03T00:16:04.375Z,82.70
2018-06-03T00:18:32.531Z,82.50
2018-06-03T00:21:12.252Z,82.70
2018-06-03T00:23:40.297Z,82.70
2018-06-03T00:26:08.438Z,82.70
2018-06-03T00:28:36.539Z,83.10
2018-06-03T00:31:04.612Z,82.80
2018-06-03T00:33:32.825Z,83.00
2018-06-03T00:36:12.381Z,82.90
2018-06-03T00:38:40.487Z,82.70
2018-06-03T00:41:08.685Z,83.00
2018-06-03T00:43:36.757Z,82.80
2018-06-03T00:46:04.882Z,83.20
2018-06-03T00:48:33.099Z,83.10
2018-06-03T00:51:01.203Z,83.40
2018-06-03T00:53:29.328Z,83.20
2018-06-03T00:55:57.501Z,83.10
2018-06-03T01:00:53.479Z,83.10
2018-06-03T01:03:21.614Z,83.40
2018-06-03T01:05:49.767Z,83.30
2018-06-03T01:08:17.834Z,83.30
2018-06-03T01:10:46.040Z,83.40
2018-06-03T01:13:14.210Z,83.60
2018-06-03T01:15:42.286Z,83.40
2018-06-03T01:18:10.368Z,83.40
2018-06-03T01:20:38.555Z,83.30
2018-06-03T01:23:06.685Z,83.40
2018-06-03T01:28:02.755Z,83.20
2018-06-03T01:30:30.860Z,83.10
2018-06-03T01:32:58.992Z,83.20
2018-06-03T01:35:27.332Z,83.20
2018-06-03T01:37:55.587Z,83.20
2018-06-03T01:40:23.674Z,83.00
2018-06-03T01:42:51.826Z,83.20
2018-06-03T01:45:19.984Z,83.40
2018-06-03T01:47:48.052Z,83.60
2018-06-03T01:52:44.075Z,83.70
2018-06-03T01:55:12.160Z,83.70
2018-06-03T01:57:40.226Z,83.20
2018-06-03T02:00:08.334Z,83.20
2018-06-03T02:02:36.431Z,83.70
2018-06-03T02:05:04.528Z,83.20
2018-06-03T02:07:32.684Z,83.00
2018-06-03T02:10:00.767Z,83.20
2018-06-03T02:12:28.842Z,83.50
2018-06-03T02:14:57.030Z,83.40
2018-06-03T02:17:25.091Z,83.20
2018-06-03T02:19:53.265Z,83.40
2018-06-03T02:22:21.483Z,83.70
2018-06-03T02:24:49.624Z,83.70
2018-06-03T02:27:17.741Z,84.00
2018-06-03T02:29:45.882Z,83.70
2018-06-03T02:32:13.992Z,84.10
2018-06-03T02:34:42.103Z,83.90
2018-06-03T02:37:10.252Z,83.70
2018-06-03T02:39:38.351Z,83.70
2018-06-03T02:42:06.465Z,83.90
2018-06-03T02:47:02.472Z,84.00
2018-06-03T02:49:30.545Z,84.10
2018-06-03T02:51:58.712Z,84.00
2018-06-03T02:54:26.865Z,84.20
2018-06-03T02:56:54.968Z,83.90
2018-06-03T02:59:23.041Z,84.00
2018-06-03T03:01:51.213Z,84.10
2018-06-03T03:04:19.297Z,84.30
2018-06-03T03:06:47.357Z,84.30
2018-06-03T03:09:15.691Z,84.30
2018-06-03T03:11:43.754Z,84.30
2018-06-03T03:14:11.861Z,84.10
2018-06-03T03:16:40.040Z,84.00
2018-06-03T03:19:08.132Z,84.30
2018-06-03T03:21:36.202Z,84.50
2018-06-03T03:24:04.355Z,84.40
2018-06-03T03:26:32.419Z,84.50
2018-06-03T03:29:00.482Z,84.50
2018-06-03T03:33:56.487Z,84.30
2018-06-03T03:36:24.561Z,84.30
2018-06-03T03:38:52.777Z,84.20
2018-06-03T03:41:20.856Z,83.80
2018-06-03T03:43:48.964Z,83.70
2018-06-03T03:46:17.103Z,83.40
2018-06-03T03:48:45.215Z,83.50
2018-06-03T03:51:13.301Z,83.90
2018-06-03T03:53:41.488Z,84.10
2018-06-03T03:56:09.605Z,84.30
2018-06-03T03:58:37.740Z,84.30
2018-06-03T04:01:05.935Z,84.30
2018-06-03T04:03:34.012Z,84.70
2018-06-03T04:06:02.104Z,84.20
2018-06-03T04:08:30.276Z,84.20
2018-06-03T04:10:58.393Z,83.90
2018-06-03T04:13:26.494Z,83.50
2018-06-03T04:15:54.686Z,83.10
2018-06-03T04:18:22.808Z,82.90
2018-06-03T04:20:50.920Z,82.90
2018-06-03T04:23:19.109Z,83.00
2018-06-03T04:25:47.252Z,82.90
2018-06-03T04:28:15.377Z,83.00
2018-06-03T04:30:43.876Z,82.80
2018-06-03T04:33:12.076Z,82.60
2018-06-03T04:35:40.177Z,82.50
2018-06-03T04:38:08.253Z,82.40
2018-06-03T04:40:36.530Z,82.60
2018-06-03T04:43:04.710Z,81.90
2018-06-03T04:48:01.624Z,81.70
2018-06-03T04:50:29.705Z,82.00
2018-06-03T04:52:57.800Z,82.20
2018-06-03T04:55:26.596Z,82.30
2018-06-03T04:57:54.772Z,82.40
2018-06-03T05:00:22.870Z,83.00
2018-06-03T05:02:51.002Z,81.90
2018-06-03T05:05:19.102Z,81.90
2018-06-03T05:07:47.232Z,81.90
2018-06-03T05:10:15.341Z,82.20
2018-06-03T05:15:12.793Z,81.80
2018-06-03T05:17:41.012Z,81.90
2018-06-03T05:22:37.002Z,81.90
2018-06-03T05:25:05.165Z,82.10
2018-06-03T05:27:33.323Z,81.70
2018-06-03T05:30:01.434Z,81.90
2018-06-03T05:32:29.521Z,81.80
2018-06-03T05:34:57.620Z,81.50
2018-06-03T05:37:25.712Z,81.60
2018-06-03T05:39:53.829Z,81.60
2018-06-03T05:42:21.914Z,81.70
2018-06-03T05:44:50.082Z,81.60
2018-06-03T05:47:18.175Z,81.50
2018-06-03T05:49:46.331Z,81.20
2018-06-03T05:52:14.407Z,81.30
2018-06-03T05:54:42.495Z,81.50
2018-06-03T05:57:10.626Z,81.50
2018-06-03T05:59:39.067Z,81.10
2018-06-03T06:02:07.180Z,80.90
2018-06-03T06:04:35.324Z,80.60
2018-06-03T06:07:03.467Z,80.90
2018-06-03T06:09:31.576Z,80.80
2018-06-03T06:11:59.686Z,80.50
2018-06-03T06:14:27.758Z,80.90
2018-06-03T06:16:55.953Z,81.00
2018-06-03T06:19:24.061Z,80.30
2018-06-03T06:21:52.172Z,80.10
2018-06-03T06:24:20.883Z,80.30
2018-06-03T06:26:49.071Z,80.20
2018-06-03T06:29:17.124Z,80.50
2018-06-03T06:31:45.227Z,80.30
2018-06-03T06:34:13.308Z,80.10
2018-06-03T06:36:41.390Z,80.10
2018-06-03T06:39:09.731Z,80.20
2018-06-03T06:41:38.165Z,80.40
2018-06-03T06:44:06.253Z,80.80
2018-06-03T06:46:34.338Z,80.80
2018-06-03T06:49:02.468Z,80.50
2018-06-03T06:51:30.556Z,80.30
2018-06-03T06:53:58.675Z,80.00
2018-06-03T06:56:26.807Z,79.80
2018-06-03T06:58:54.976Z,79.70
2018-06-03T07:01:23.159Z,79.00
2018-06-03T07:03:51.328Z,78.30
2018-06-03T07:06:19.496Z,77.70
2018-06-03T07:08:51.118Z,77.00
2018-06-03T07:11:19.338Z,77.30
2018-06-03T07:13:47.650Z,76.80
2018-06-03T07:16:15.763Z,77.20
2018-06-03T07:18:43.876Z,77.80
2018-06-03T07:21:12.093Z,78.10
2018-06-03T07:23:40.197Z,77.60
2018-06-03T07:26:08.289Z,77.80
2018-06-03T07:28:36.708Z,78.10
2018-06-03T07:31:05.251Z,78.00
2018-06-03T07:33:33.394Z,78.10
2018-06-03T07:36:01.526Z,78.10
2018-06-03T07:38:29.722Z,77.40
2018-06-03T07:40:57.945Z,77.20
2018-06-03T07:43:27.067Z,76.80
2018-06-03T07:45:56.658Z,76.30
2018-06-03T07:50:52.752Z,77.70
2018-06-03T07:53:20.963Z,79.50
2018-06-03T07:55:49.132Z,78.80
2018-06-03T07:58:17.232Z,81.50
2018-06-03T08:00:45.318Z,83.20
2018-06-03T08:03:13.416Z,83.90
2018-06-03T08:05:41.510Z,85.10
2018-06-03T08:08:09.629Z,85.40
2018-06-03T08:10:37.734Z,86.20
2018-06-03T08:13:05.943Z,85.40
2018-06-03T08:15:34.023Z,85.60
2018-06-03T08:20:30.071Z,85.10
2018-06-03T08:22:58.152Z,85.90
2018-06-03T08:25:26.263Z,85.30
2018-06-03T08:27:54.324Z,85.70
2018-06-03T08:30:22.407Z,85.80
2018-06-03T08:32:50.573Z,85.20
2018-06-03T08:35:18.784Z,86.10
2018-06-03T08:37:46.868Z,87.90
2018-06-03T08:40:15.169Z,86.90
2018-06-03T08:45:11.164Z,87.40
2018-06-03T08:47:39.277Z,87.90
2018-06-03T08:50:07.421Z,88.40
2018-06-03T08:52:35.486Z,88.20
2018-06-03T08:55:03.618Z,88.60
2018-06-03T08:57:31.728Z,88.90
2018-06-03T08:59:59.846Z,88.90
2018-06-03T09:02:27.975Z,89.10
2018-06-03T09:04:56.067Z,88.80
2018-06-03T09:07:24.156Z,88.30
2018-06-03T09:09:52.268Z,88.30
2018-06-03T09:12:20.369Z,88.00
2018-06-03T09:14:48.556Z,88.50
2018-06-03T09:17:16.719Z,87.10
2018-06-03T09:19:46.559Z,88.40
2018-06-03T09:22:14.637Z,88.00
2018-06-03T09:24:42.789Z,88.30
2018-06-03T09:27:12.108Z,86.60
2018-06-03T09:29:40.208Z,86.80
2018-06-03T09:32:08.419Z,87.00
2018-06-03T09:34:36.624Z,86.20
2018-06-03T09:37:04.724Z,87.10
2018-06-03T09:39:32.943Z,86.90
2018-06-03T09:42:01.069Z,86.90
2018-06-03T09:44:29.145Z,86.50
2018-06-03T09:46:57.618Z,86.40
2018-06-03T09:49:25.720Z,86.10
2018-06-03T09:51:53.831Z,86.50
2018-06-03T09:54:24.506Z,86.80
2018-06-03T09:56:52.963Z,86.70
2018-06-03T09:59:22.024Z,87.30
2018-06-03T10:01:50.212Z,86.90
2018-06-03T10:04:18.416Z,86.70
2018-06-03T10:06:46.579Z,86.10
2018-06-03T10:09:14.713Z,86.50
2018-06-03T10:11:42.935Z,85.10
2018-06-03T10:14:11.100Z,84.50
2018-06-03T10:16:39.695Z,83.80
2018-06-03T10:19:08.184Z,84.40
2018-06-03T10:21:36.485Z,83.70
2018-06-03T10:24:04.619Z,82.70
2018-06-03T10:26:32.765Z,80.90
2018-06-03T10:29:00.871Z,80.10
2018-06-03T10:31:29.027Z,79.60
2018-06-03T10:33:57.250Z,79.90
2018-06-03T10:38:53.283Z,79.40
2018-06-03T10:41:21.522Z,79.10
2018-06-03T10:43:49.981Z,78.00
2018-06-03T10:46:18.363Z,77.50
2018-06-03T10:48:50.097Z,76.80
2018-06-03T10:51:18.227Z,77.10
2018-06-03T10:53:46.389Z,76.10
2018-06-03T10:56:17.964Z,75.40
2018-06-03T10:58:47.090Z,76.70
2018-06-03T11:01:15.333Z,76.20
2018-06-03T11:03:43.648Z,77.60
2018-06-03T11:06:11.877Z,76.60
2018-06-03T11:08:39.959Z,76.80
2018-06-03T11:11:08.091Z,76.50
2018-06-03T11:13:36.218Z,76.60
2018-06-03T11:16:04.361Z,77.40
2018-06-03T11:18:32.499Z,76.90
2018-06-03T11:21:00.595Z,74.60
2018-06-03T11:23:28.712Z,73.70
2018-06-03T11:25:57.019Z,72.30
2018-06-03T11:28:25.151Z,73.10
2018-06-03T11:30:53.400Z,73.20
2018-06-03T11:33:21.540Z,73.10
2018-06-03T11:35:51.558Z,71.20
2018-06-03T11:40:47.888Z,67.40
2018-06-03T11:43:16.048Z,66.90
2018-06-03T11:45:44.224Z,67.20
2018-06-03T11:48:12.396Z,67.50
2018-06-03T11:50:40.494Z,67.90
2018-06-03T11:53:08.683Z,67.60
2018-06-03T11:55:37.708Z,65.30
2018-06-03T11:58:42.809Z,66.00
2018-06-03T12:01:10.878Z,65.40
2018-06-03T12:03:41.900Z,65.30
2018-06-03T12:06:10.068Z,65.70
2018-06-03T12:08:38.206Z,65.80
2018-06-03T12:13:34.414Z,68.00
2018-06-03T12:16:02.481Z,67.70
2018-06-03T12:18:30.730Z,68.30
2018-06-03T12:20:59.543Z,67.00
2018-06-03T12:23:34.640Z,65.90
2018-06-03T12:26:02.826Z,66.50
2018-06-03T12:28:31.021Z,65.40
2018-06-03T12:31:00.458Z,65.10
2018-06-03T12:33:28.794Z,65.80
2018-06-03T12:35:57.153Z,65.90
2018-06-03T12:38:25.509Z,65.80
2018-06-03T12:40:53.613Z,65.20
2018-06-03T12:43:22.115Z,64.80
2018-06-03T12:45:50.332Z,65.10
2018-06-03T12:48:18.641Z,64.90
2018-06-03T12:50:46.915Z,65.50
2018-06-03T12:55:43.280Z,65.10
2018-06-03T12:58:11.997Z,64.60
2018-06-03T13:00:40.538Z,64.70
2018-06-03T13:03:08.646Z,61.70
2018-06-03T13:05:36.780Z,62.70
2018-06-03T13:08:04.982Z,62.80
2018-06-03T13:10:33.146Z,63.90
2018-06-03T13:13:01.521Z,63.50
2018-06-03T13:15:29.715Z,61.90
2018-06-03T13:17:57.985Z,61.70
2018-06-03T13:20:26.455Z,61.30
2018-06-03T13:22:54.570Z,61.70
2018-06-03T13:25:22.800Z,61.00
2018-06-03T13:27:50.966Z,61.50
2018-06-03T13:30:19.221Z,60.70
2018-06-03T13:32:47.583Z,60.10
2018-06-03T13:35:19.845Z,59.70
2018-06-03T13:37:48.001Z,59.90
2018-06-03T13:40:16.147Z,60.30
2018-06-03T13:42:44.403Z,60.90
2018-06-03T13:45:12.516Z,59.70
2018-06-03T13:47:40.611Z,60.30
2018-06-03T13:50:08.753Z,59.40
2018-06-03T13:52:36.910Z,59.50
2018-06-03T13:57:33.020Z,59.00
2018-06-03T14:00:01.077Z,59.10
2018-06-03T14:02:29.147Z,59.30
2018-06-03T14:04:57.300Z,59.80
2018-06-03T14:07:25.449Z,60.00
2018-06-03T14:09:53.830Z,60.10
2018-06-03T14:12:21.944Z,58.10
2018-06-03T14:14:50.112Z,58.50
2018-06-03T14:17:18.302Z,58.20
2018-06-03T14:19:46.528Z,58.40
2018-06-03T14:22:14.605Z,58.60
2018-06-03T14:24:42.817Z,56.30
2018-06-03T14:27:10.963Z,56.90
2018-06-03T14:29:39.181Z,55.90
2018-06-03T14:32:07.440Z,55.70
2018-06-03T14:34:35.541Z,55.60
2018-06-03T14:37:03.805Z,55.60
2018-06-03T14:39:32.120Z,55.20
2018-06-03T14:42:00.204Z,55.50
2018-06-03T14:49:24.411Z,54.70
2018-06-03T14:51:52.784Z,55.40
2018-06-03T14:54:20.897Z,54.30
2018-06-03T14:56:49.278Z,54.40
2018-06-03T14:59:17.855Z,53.40
2018-06-03T15:01:45.949Z,53.60
2018-06-03T15:04:14.140Z,52.80
2018-06-03T15:06:42.228Z,52.50
2018-06-03T15:09:10.739Z,52.60
2018-06-03T15:11:38.870Z,53.10
2018-06-03T15:14:06.916Z,52.50
2018-06-03T15:16:35.153Z,53.60
2018-06-03T15:19:03.238Z,53.40
2018-06-03T15:21:31.424Z,53.30
2018-06-03T15:23:59.563Z,54.20
2018-06-03T15:26:27.680Z,55.30
2018-06-03T15:28:55.998Z,55.90
2018-06-03T15:33:52.047Z,56.50
2018-06-03T15:36:20.268Z,56.10
2018-06-03T15:38:48.415Z,55.80
2018-06-03T15:41:16.522Z,56.20
2018-06-03T15:46:12.784Z,56.60
2018-06-03T15:51:09.024Z,57.60
2018-06-03T15:53:37.355Z,57.60
2018-06-03T15:56:05.470Z,58.10
2018-06-03T15:58:33.811Z,58.20
2018-06-03T16:01:02.340Z,58.80
2018-06-03T16:03:30.545Z,59.10
2018-06-03T16:05:58.815Z,58.40
2018-06-03T16:10:54.847Z,59.00
2018-06-03T16:13:23.457Z,59.10
2018-06-03T16:15:51.696Z,59.60
2018-06-03T16:18:19.798Z,59.10
2018-06-03T16:20:48.097Z,58.50
2018-06-03T16:23:16.265Z,58.90
2018-06-03T16:25:44.807Z,58.80
2018-06-03T16:28:13.446Z,58.40
2018-06-03T16:30:41.667Z,58.70
2018-06-03T16:33:10.000Z,59.00
2018-06-03T16:35:38.293Z,59.20
2018-06-03T16:38:06.616Z,59.40
2018-06-03T16:40:36.645Z,60.00
2018-06-03T16:43:07.185Z,60.40
2018-06-03T16:45:35.629Z,60.50
2018-06-03T16:48:03.719Z,59.60
2018-06-03T16:50:31.814Z,59.50
2018-06-03T16:53:00.330Z,59.00
2018-06-03T16:55:28.705Z,58.70
2018-06-03T16:57:56.904Z,58.40
2018-06-03T17:00:25.027Z,58.70
2018-06-03T17:02:53.316Z,59.00
2018-06-03T17:05:21.842Z,59.10
2018-06-03T17:07:50.047Z,58.60
2018-06-03T17:10:19.238Z,58.90
2018-06-03T17:12:47.624Z,59.30
2018-06-03T17:15:16.048Z,59.10
2018-06-03T17:17:44.412Z,59.50
2018-06-03T17:20:12.657Z,59.90
2018-06-03T17:22:40.739Z,59.90
2018-06-03T17:25:08.827Z,60.90
2018-06-03T17:27:37.270Z,61.40
2018-06-03T17:30:05.379Z,61.40
2018-06-03T17:32:33.554Z,61.30
2018-06-03T17:35:01.662Z,61.80
2018-06-03T17:37:29.766Z,62.00
2018-06-03T17:39:57.899Z,62.10
2018-06-03T17:42:26.077Z,62.70
2018-06-03T17:44:54.200Z,63.10
2018-06-03T17:47:22.286Z,63.40
2018-06-03T17:49:50.396Z,63.80
2018-06-03T17:52:18.847Z,64.10
2018-06-03T17:54:47.311Z,64.10
2018-06-03T17:57:15.742Z,64.50
2018-06-03T17:59:43.991Z,64.50
2018-06-03T18:02:12.154Z,64.80
2018-06-03T18:04:40.358Z,64.50
2018-06-03T18:07:08.472Z,64.90
2018-06-03T18:09:36.637Z,65.10
2018-06-03T18:12:05.563Z,65.20
2018-06-03T18:14:33.787Z,65.80
2018-06-03T18:17:02.026Z,65.90
2018-06-03T18:19:30.070Z,66.50
2018-06-03T18:24:26.194Z,66.50
2018-06-03T18:26:54.284Z,66.00
2018-06-03T18:29:22.474Z,66.30
2018-06-03T18:31:50.557Z,66.00
2018-06-03T18:34:18.647Z,66.00
2018-06-03T18:36:46.867Z,66.10
2018-06-03T18:39:15.024Z,66.30
2018-06-03T18:41:43.445Z,66.50
2018-06-03T18:44:12.020Z,66.60
2018-06-03T18:46:40.106Z,66.90
2018-06-03T18:49:08.256Z,66.80
2018-06-03T18:51:37.786Z,67.20
2018-06-03T18:54:05.983Z,67.30
2018-06-03T18:56:34.208Z,67.70
2018-06-03T18:59:02.307Z,68.10
2018-06-03T19:01:30.449Z,68.30
2018-06-03T19:03:58.711Z,68.90
2018-06-03T19:06:26.899Z,69.00
2018-06-03T19:08:55.058Z,68.90
2018-06-03T19:11:23.245Z,69.40
2018-06-03T19:13:51.377Z,69.40
2018-06-03T19:16:19.573Z,69.90
2018-06-03T19:18:47.764Z,70.10
2018-06-03T19:21:15.897Z,70.20
2018-06-03T19:23:44.000Z,69.90
2018-06-03T19:26:12.175Z,70.30
2018-06-03T19:28:40.312Z,70.30
2018-06-03T19:31:08.463Z,70.60
2018-06-03T19:33:36.640Z,70.90
2018-06-03T19:36:04.784Z,70.50
2018-06-03T19:38:33.109Z,70.70
2018-06-03T19:41:01.445Z,70.90
2018-06-03T19:43:29.575Z,71.40
2018-06-03T19:45:57.687Z,71.50
2018-06-03T19:48:25.826Z,72.10
2018-06-03T19:50:54.118Z,72.30
2018-06-03T19:53:22.239Z,72.50
2018-06-03T19:55:50.374Z,72.70
2018-06-03T19:58:19.643Z,73.30
2018-06-03T20:00:47.711Z,73.50
2018-06-03T20:03:15.800Z,73.20
2018-06-03T20:05:43.898Z,73.50
2018-06-03T20:08:12.001Z,73.70
2018-06-03T20:10:40.277Z,73.50
2018-06-03T20:13:08.375Z,73.40
2018-06-03T20:15:36.509Z,73.70
2018-06-03T20:18:04.611Z,73.90
2018-06-03T20:20:32.731Z,74.10
2018-06-03T20:23:01.103Z,74.20
2018-06-03T20:25:29.251Z,74.50
2018-06-03T20:27:57.390Z,75.00
2018-06-03T20:30:25.576Z,75.10
2018-06-03T20:32:53.626Z,75.70
2018-06-03T20:35:21.912Z,76.10
2018-06-03T20:37:50.048Z,76.70
2018-06-03T20:42:46.243Z,76.50
2018-06-03T20:45:14.454Z,76.50
2018-06-03T20:47:42.535Z,76.70
2018-06-03T20:50:10.616Z,76.70
2018-06-03T20:55:06.707Z,76.90
2018-06-03T20:57:34.903Z,76.80
2018-06-03T21:00:03.008Z,77.00
2018-06-03T21:04:59.076Z,76.30
2018-06-03T21:07:27.199Z,76.60
2018-06-03T21:09:55.356Z,76.50
2018-06-03T21:12:23.474Z,77.20
2018-06-03T21:14:51.779Z,77.10
2018-06-03T21:17:19.855Z,77.30
2018-06-03T21:19:48.016Z,77.20
2018-06-03T21:22:16.144Z,77.60
2018-06-03T21:24:44.250Z,78.10
2018-06-03T21:27:12.378Z,78.30
2018-06-03T21:29:40.486Z,78.80
2018-06-03T21:32:08.627Z,79.40
2018-06-03T21:34:36.754Z,79.50
2018-06-03T21:37:05.086Z,79.50
2018-06-03T21:39:33.187Z,79.90
2018-06-03T21:42:01.370Z,79.90
2018-06-03T21:44:29.486Z,80.10
2018-06-03T21:46:57.603Z,79.80
2018-06-03T21:49:25.789Z,80.00
2018-06-03T21:54:21.898Z,80.30
2018-06-03T21:56:50.050Z,79.80
2018-06-03T21:59:18.162Z,79.70
2018-06-03T22:01:46.360Z,79.70
2018-06-03T22:04:14.467Z,79.60
2018-06-03T22:06:42.683Z,79.60
2018-06-03T22:09:10.777Z,79.40
2018-06-03T22:11:39.019Z,79.70
2018-06-03T22:14:07.176Z,80.40
2018-06-03T22:16:35.323Z,79.40
2018-06-03T22:19:03.446Z,79.70
2018-06-03T22:21:31.567Z,79.70
2018-06-03T22:23:59.800Z,80.00
2018-06-03T22:26:27.905Z,81.30
2018-06-03T22:28:56.124Z,81.70
2018-06-03T22:31:24.351Z,82.20
2018-06-03T22:33:52.449Z,81.60
2018-06-03T22:36:20.551Z,81.20
2018-06-03T22:38:48.686Z,81.50
2018-06-03T22:41:16.917Z,81.70
2018-06-03T22:43:45.029Z,81.50
2018-06-03T22:46:13.248Z,82.00
2018-06-03T22:48:41.423Z,82.10
2018-06-03T22:51:09.567Z,82.30
2018-06-03T22:53:37.675Z,81.90
2018-06-03T22:56:05.768Z,81.80
2018-06-03T22:58:34.015Z,81.90
2018-06-03T23:01:02.088Z,81.70
2018-06-03T23:03:30.227Z,81.40
2018-06-03T23:08:26.267Z,81.70
2018-06-03T23:13:22.246Z,82.60
2018-06-03T23:15:50.446Z,81.60
2018-06-03T23:18:18.575Z,81.70
2018-06-03T23:20:46.752Z,81.70
2018-06-03T23:23:14.894Z,81.70
2018-06-03T23:25:43.100Z,81.70
2018-06-03T23:28:11.249Z,82.60
2018-06-03T23:30:39.351Z,81.90
2018-06-03T23:33:07.665Z,82.70
2018-06-03T23:35:35.799Z,82.20
2018-06-03T23:40:31.999Z,82.30
2018-06-03T23:43:00.188Z,82.60
2018-06-03T23:45:28.291Z,83.40
2018-06-03T23:50:24.543Z,82.90
2018-06-03T23:52:52.639Z,82.70
2018-06-03T23:55:20.781Z,82.70
2018-06-03T23:57:48.886Z,82.80
